Time;durP1;ratioP1;P1;durP2;ratioP2;P2;SDS_P1;SDS_P2;PMS_P1;PMS_P2;Temp;Humidity;BMP_temperature;BMP_pressure;BME280_temperature;BME280_humidity;BME280_pressure;Samples;Min_cycle;Max_cycle;Signal;HPM_P1;HPM_P2
2023/08/11 00:00:04;;;;;;;2.65;0.80;;;20.30;42.60;;;;;;5055480;28;20051;-61
2023/08/11 00:02:31;;;;;;;3.83;1.30;;;20.40;42.00;;;;;;5055517;28;20033;-61
2023/08/11 00:04:59;;;;;;;4.75;0.80;;;20.10;42.60;;;;;;5055331;28;20474;-59
2023/08/11 00:07:26;;;;;;;3.28;0.85;;;20.20;42.50;;;;;;5054260;28;20055;-61
2023/08/11 00:09:54;;;;;;;1.15;0.70;;;20.40;42.00;;;;;;5055432;28;20423;-61
2023/08/11 00:12:22;;;;;;;3.90;0.80;;;20.50;42.00;;;;;;5055381;28;20025;-60
2023/08/11 00:14:50;;;;;;;2.30;0.57;;;20.40;42.20;;;;;;5070851;28;20029;-61
2023/08/11 00:17:17;;;;;;;4.68;0.82;;;21.00;41.30;;;;;;5054171;28;20451;-61
2023/08/11 00:19:45;;;;;;;2.22;0.70;;;20.90;41.30;;;;;;5055240;28;20036;-61
2023/08/11 00:22:12;;;;;;;2.90;0.77;;;20.70;41.90;;;;;;5055151;28;20538;-61
2023/08/11 00:24:39;;;;;;;3.05;0.90;;;21.30;41.00;;;;;;5054951;28;20032;-61
2023/08/11 00:27:07;;;;;;;2.05;0.93;;;20.70;41.30;;;;;;5055080;28;20021;-61
2023/08/11 00:29:34;;;;;;;2.08;0.80;;;20.70;42.40;;;;;;5054104;28;20049;-61
2023/08/11 00:32:03;;;;;;;2.25;0.60;;;21.20;40.90;;;;;;5055032;28;20020;-60
2023/08/11 00:34:30;;;;;;;1.85;0.70;;;21.40;40.90;;;;;;5054038;28;20020;-61
2023/08/11 00:36:58;;;;;;;3.63;0.73;;;21.40;40.80;;;;;;5053928;28;20025;-61
2023/08/11 00:39:25;;;;;;;2.35;0.65;;;21.60;39.80;;;;;;5054940;28;20328;-61
2023/08/11 00:41:53;;;;;;;2.88;0.70;;;22.10;38.60;;;;;;5055008;28;20112;-61
2023/08/11 00:44:20;;;;;;;1.33;0.60;;;22.30;37.70;;;;;;5054004;28;20118;-61
2023/08/11 00:46:48;;;;;;;2.03;0.60;;;21.50;39.90;;;;;;5053937;28;20025;-61
2023/08/11 00:49:16;;;;;;;1.58;0.60;;;21.70;39.50;;;;;;5070689;28;20017;-61
2023/08/11 00:51:44;;;;;;;4.45;0.80;;;21.80;39.70;;;;;;5054826;28;20044;-61
2023/08/11 00:54:13;;;;;;;2.72;0.77;;;21.80;39.40;;;;;;5053833;28;20028;-60
2023/08/11 00:56:44;;;;;;;2.13;0.63;;;21.80;39.50;;;;;;5053752;28;20032;-61
2023/08/11 00:59:15;;;;;;;2.38;0.68;;;22.30;39.00;;;;;;5054733;28;20025;-60
2023/08/11 01:01:42;;;;;;;2.75;0.70;;;22.10;38.50;;;;;;5053874;28;20037;-60
2023/08/11 01:04:10;;;;;;;2.17;0.75;;;22.00;38.60;;;;;;5055669;28;20439;-60
2023/08/11 01:06:55;;;;;;;2.30;0.43;;;22.10;39.10;;;;;;5057270;28;20049;-59
2023/08/11 01:09:38;;;;;;;3.58;0.52;;;22.80;37.60;;;;;;5058506;28;20455;-60
2023/08/11 01:12:42;;;;;;;2.13;0.68;;;22.90;36.70;;;;;;5058659;28;20028;-60
2023/08/11 01:15:17;;;;;;;2.20;0.52;;;23.30;36.30;;;;;;5057859;28;20394;-60
2023/08/11 01:17:48;;;;;;;2.47;0.60;;;22.80;36.70;;;;;;5057499;28;20025;-60
2023/08/11 01:20:18;;;;;;;1.90;0.70;;;22.90;37.60;;;;;;5074230;28;20031;-60
2023/08/11 01:22:48;;;;;;;1.73;0.52;;;23.20;36.50;;;;;;5057241;28;20033;-60
2023/08/11 01:25:22;;;;;;;1.63;0.68;;;23.20;36.80;;;;;;5058145;28;20104;-61
2023/08/11 01:27:55;;;;;;;1.23;0.47;;;23.10;35.50;;;;;;5058312;28;20017;-61
2023/08/11 01:30:23;;;;;;;3.47;0.80;;;23.40;35.00;;;;;;5058429;28;20021;-61
2023/08/11 01:32:54;;;;;;;1.13;0.55;;;23.00;35.20;;;;;;5058318;28;20045;-61
2023/08/11 01:35:22;;;;;;;4.30;1.40;;;22.80;37.20;;;;;;5056834;28;20025;-65
2023/08/11 01:37:50;;;;;;;1.27;0.60;;;23.30;36.20;;;;;;5057047;28;20031;-66
2023/08/11 01:40:18;;;;;;;0.77;0.32;;;21.70;36.50;;;;;;5057836;28;20197;-66
2023/08/11 01:42:46;;;;;;;1.25;0.50;;;21.80;38.10;;;;;;5058075;28;20055;-65
2023/08/11 01:45:17;;;;;;;2.53;0.95;;;22.60;37.10;;;;;;5057980;28;20036;-65
2023/08/11 01:47:47;;;;;;;1.60;0.50;;;22.90;37.50;;;;;;5056901;28;20025;-65
2023/08/11 01:50:16;;;;;;;1.20;0.60;;;23.20;35.90;;;;;;5056959;28;20389;-65
2023/08/11 01:52:47;;;;;;;3.47;0.50;;;23.00;36.70;;;;;;5057622;28;20500;-66
2023/08/11 01:55:16;;;;;;;1.30;0.80;;;22.80;35.80;;;;;;5056772;28;20036;-66
2023/08/11 01:57:44;;;;;;;1.08;0.52;;;23.00;35.50;;;;;;5056858;28;20024;-66
2023/08/11 02:00:13;;;;;;;2.20;0.50;;;22.50;36.40;;;;;;5056667;28;20025;-65
2023/08/11 02:02:42;;;;;;;3.45;0.60;;;21.90;36.50;;;;;;5057108;28;20021;-66
2023/08/11 02:05:11;;;;;;;1.10;0.40;;;22.50;36.80;;;;;;5056502;28;20032;-65
2023/08/11 02:07:40;;;;;;;0.80;0.43;;;22.60;36.20;;;;;;5056661;28;20533;-65
2023/08/11 02:10:09;;;;;;;2.97;0.70;;;23.00;36.70;;;;;;5057418;28;20052;-64
2023/08/11 02:12:40;;;;;;;1.50;0.65;;;23.20;35.80;;;;;;5056455;28;20021;-64
2023/08/11 02:15:10;;;;;;;0.97;0.53;;;23.60;35.30;;;;;;5056746;28;20040;-66
2023/08/11 02:17:38;;;;;;;2.53;0.70;;;23.70;33.70;;;;;;5056734;28;20265;-66
2023/08/11 02:20:26;;;;;;;1.63;0.55;;;23.40;35.00;;;;;;5056657;28;20035;-65
2023/08/11 02:22:54;;;;;;;1.88;0.50;;;23.40;36.10;;;;;;5072767;28;20308;-65
2023/08/11 02:25:28;;;;;;;1.95;0.57;;;24.10;34.40;;;;;;5056138;28;20123;-66
2023/08/11 02:27:56;;;;;;;2.85;0.60;;;24.10;33.90;;;;;;5057149;28;20021;-65
2023/08/11 02:30:24;;;;;;;2.72;1.10;;;24.30;34.00;;;;;;5057205;28;20040;-66
2023/08/11 02:32:52;;;;;;;4.47;0.60;;;24.10;34.90;;;;;;5057097;28;20013;-66
2023/08/11 02:35:19;;;;;;;2.13;0.65;;;24.20;34.40;;;;;;5056098;28;20462;-65
2023/08/11 02:37:47;;;;;;;1.95;0.70;;;24.80;33.90;;;;;;5055414;28;20033;-61
2023/08/11 02:40:19;;;;;;;0.65;0.32;;;24.90;34.30;;;;;;5055958;28;20055;-61
2023/08/11 02:42:56;;;;;;;3.22;0.70;;;24.70;34.20;;;;;;5056996;28;20035;-61
2023/08/11 02:45:25;;;;;;;2.58;0.60;;;24.10;33.80;;;;;;5056045;28;20453;-61
2023/08/11 02:47:53;;;;;;;2.30;0.75;;;24.60;34.90;;;;;;5056837;28;20025;-62
2023/08/11 02:50:21;;;;;;;1.77;0.65;;;24.70;33.30;;;;;;5056902;28;20021;-61
2023/08/11 02:52:48;;;;;;;3.30;0.70;;;24.30;33.90;;;;;;5056781;28;20086;-61
2023/08/11 02:55:16;;;;;;;1.20;0.50;;;24.90;32.80;;;;;;5055761;28;20024;-61
2023/08/11 02:57:44;;;;;;;3.10;0.57;;;24.60;34.70;;;;;;5056656;28;20029;-61
2023/08/11 03:00:13;;;;;;;1.95;0.60;;;24.90;32.30;;;;;;5056726;28;20104;-61
2023/08/11 03:02:48;;;;;;;2.28;0.85;;;25.10;32.80;;;;;;5056666;28;20346;-61
2023/08/11 03:05:16;;;;;;;1.27;0.40;;;24.80;32.80;;;;;;5054746;28;20056;-61
2023/08/11 03:07:44;;;;;;;0.90;0.57;;;24.30;33.80;;;;;;5035510;28;20120;-60
2023/08/11 03:10:11;;;;;;;2.80;0.63;;;24.90;33.90;;;;;;5035542;28;20021;-60
2023/08/11 03:12:39;;;;;;;1.67;0.70;;;25.40;32.90;;;;;;5035511;28;20021;-62
2023/08/11 03:15:08;;;;;;;1.55;0.50;;;25.10;32.30;;;;;;5035538;28;20025;-61
2023/08/11 03:17:36;;;;;;;2.53;0.68;;;25.10;32.40;;;;;;5036358;28;20364;-62
2023/08/11 03:20:12;;;;;;;2.30;0.70;;;22.80;34.60;;;;;;5035465;28;20025;-61
2023/08/11 03:22:44;;;;;;;1.88;0.50;;;23.20;34.30;;;;;;5036352;28;20048;-60
2023/08/11 03:25:12;;;;;;;0.47;0.40;;;23.70;34.00;;;;;;5035282;28;20039;-61
2023/08/11 03:27:41;;;;;;;1.20;0.60;;;23.00;34.10;;;;;;5035820;28;20036;-61
2023/08/11 03:30:11;;;;;;;3.55;0.55;;;23.40;33.50;;;;;;5034956;28;20071;-60
2023/08/11 03:32:39;;;;;;;2.63;0.65;;;23.20;33.70;;;;;;5036479;28;20375;-61
2023/08/11 03:35:08;;;;;;;1.70;0.60;;;23.20;34.30;;;;;;5036138;28;20108;-62
2023/08/11 03:37:36;;;;;;;2.38;0.57;;;23.50;34.30;;;;;;5035997;28;20439;-62
2023/08/11 03:40:07;;;;;;;1.77;0.95;;;24.20;33.00;;;;;;5035874;28;20021;-61
2023/08/11 03:42:35;;;;;;;1.45;0.65;;;24.50;33.60;;;;;;5035983;28;20451;-61
2023/08/11 03:45:03;;;;;;;3.03;0.70;;;24.60;33.20;;;;;;5034703;28;20406;-61
2023/08/11 03:47:30;;;;;;;2.42;0.60;;;23.40;33.70;;;;;;5035494;28;20463;-62
2023/08/11 03:49:58;;;;;;;2.90;0.60;;;24.20;33.20;;;;;;5035741;28;20029;-62
2023/08/11 03:52:25;;;;;;;2.40;0.50;;;24.60;32.60;;;;;;5035777;28;20022;-62
2023/08/11 03:54:53;;;;;;;2.08;0.82;;;24.10;32.40;;;;;;5035753;28;20029;-62
2023/08/11 03:57:21;;;;;;;1.48;0.50;;;24.20;31.40;;;;;;5034658;28;20120;-62
2023/08/11 03:59:49;;;;;;;1.63;0.55;;;23.90;33.20;;;;;;5035652;28;20336;-62
2023/08/11 04:02:28;;;;;;;1.38;0.50;;;24.20;32.90;;;;;;5034386;28;20025;-59
2023/08/11 04:05:00;;;;;;;2.58;0.63;;;24.40;31.80;;;;;;5034576;28;20029;-60
2023/08/11 04:07:28;;;;;;;2.22;0.70;;;23.60;33.00;;;;;;5052443;28;20045;-60
2023/08/11 04:10:01;;;;;;;1.10;0.60;;;24.10;32.60;;;;;;5055005;28;20017;-61
2023/08/11 04:12:28;;;;;;;2.70;0.70;;;24.10;32.20;;;;;;5055291;28;20155;-62
2023/08/11 04:14:56;;;;;;;2.53;0.82;;;23.60;32.50;;;;;;5055298;28;20029;-62
2023/08/11 04:17:23;;;;;;;1.42;0.73;;;24.50;33.00;;;;;;5055155;28;20029;-63
2023/08/11 04:19:53;;;;;;;3.00;0.80;;;24.50;33.00;;;;;;5054239;28;20028;-62
2023/08/11 04:22:24;;;;;;;2.88;0.70;;;24.30;32.60;;;;;;5055211;28;20021;-62
2023/08/11 04:24:51;;;;;;;2.70;0.70;;;23.70;33.30;;;;;;5054090;28;20040;-62
2023/08/11 04:27:19;;;;;;;1.38;0.80;;;22.30;33.80;;;;;;5054879;28;20020;-63
2023/08/11 04:29:47;;;;;;;2.22;0.88;;;22.50;33.80;;;;;;5053697;28;20079;-62
2023/08/11 04:32:14;;;;;;;2.80;0.85;;;23.30;32.30;;;;;;5053995;28;20028;-62
2023/08/11 04:34:42;;;;;;;2.72;0.90;;;23.30;32.80;;;;;;5054817;28;20339;-62
2023/08/11 04:37:10;;;;;;;2.88;0.60;;;23.50;32.20;;;;;;5053372;28;20032;-62
2023/08/11 04:39:38;;;;;;;2.17;0.80;;;23.40;32.80;;;;;;5054085;28;20029;-62
2023/08/11 04:42:07;;;;;;;7.15;1.00;;;24.40;31.90;;;;;;5054096;28;20501;-63
2023/08/11 04:44:34;;;;;;;2.35;0.85;;;25.20;30.90;;;;;;5054762;28;20447;-61
2023/08/11 04:47:02;;;;;;;1.70;0.60;;;25.50;29.90;;;;;;5053687;28;20028;-61
2023/08/11 04:49:31;;;;;;;2.67;0.63;;;26.10;29.10;;;;;;5053797;28;20493;-61
2023/08/11 04:52:00;;;;;;;3.10;1.10;;;25.60;30.10;;;;;;5054120;28;20039;-61
2023/08/11 04:54:28;;;;;;;3.97;0.75;;;26.20;29.50;;;;;;5054156;28;20067;-62
2023/08/11 04:56:56;;;;;;;3.08;0.80;;;26.80;29.20;;;;;;5054671;28;20025;-63
2023/08/11 04:59:23;;;;;;;1.20;0.60;;;27.40;28.20;;;;;;5054639;28;20104;-62
2023/08/11 05:01:51;;;;;;;1.70;0.75;;;27.80;27.70;;;;;;5054598;28;20087;-62
2023/08/11 05:04:18;;;;;;;3.75;0.68;;;28.30;27.80;;;;;;5053438;28;20036;-61
2023/08/11 05:06:45;;;;;;;3.45;0.90;;;27.40;28.20;;;;;;5053487;28;20037;-61
2023/08/11 05:09:13;;;;;;;2.33;0.70;;;27.20;28.10;;;;;;5053174;28;20112;-62
2023/08/11 05:11:40;;;;;;;2.78;0.60;;;26.00;28.80;;;;;;5054307;28;20029;-62
2023/08/11 05:14:17;;;;;;;3.40;0.85;;;26.90;28.70;;;;;;5053051;28;20094;-61
2023/08/11 05:16:47;;;;;;;2.35;0.75;;;27.60;27.70;;;;;;5053172;28;20032;-63
2023/08/11 05:19:15;;;;;;;1.42;0.77;;;28.10;27.00;;;;;;5054247;28;20470;-62
2023/08/11 05:21:43;;;;;;;2.33;0.80;;;28.90;26.10;;;;;;5052754;28;20025;-65
2023/08/11 05:24:18;;;;;;;2.42;1.05;;;28.70;26.30;;;;;;5053949;28;20489;-62
2023/08/11 05:26:45;;;;;;;3.83;1.10;;;29.10;26.40;;;;;;5055236;28;20075;-60
2023/08/11 05:29:13;;;;;;;2.00;0.73;;;29.70;25.40;;;;;;5053437;28;20080;-68
2023/08/11 05:31:41;;;;;;;1.05;0.60;;;29.10;25.70;;;;;;5054183;28;20025;-68
2023/08/11 05:34:09;;;;;;;2.78;0.60;;;28.10;26.30;;;;;;5054374;28;20356;-70
2023/08/11 05:36:37;;;;;;;1.77;0.57;;;27.50;26.80;;;;;;5053766;28;20057;-68
2023/08/11 05:39:08;;;;;;;1.75;0.60;;;27.20;28.10;;;;;;5053296;28;20083;-69
2023/08/11 05:41:35;;;;;;;2.20;0.80;;;27.70;27.90;;;;;;5054597;28;20347;-69
2023/08/11 05:44:03;;;;;;;2.42;0.80;;;28.30;26.90;;;;;;5054342;28;20024;-69
2023/08/11 05:46:31;;;;;;;2.97;0.90;;;29.10;26.60;;;;;;5054225;28;20469;-69
2023/08/11 05:48:58;;;;;;;1.75;0.73;;;29.70;26.50;;;;;;5054102;28;20116;-68
2023/08/11 05:51:26;;;;;;;1.15;0.60;;;30.00;25.60;;;;;;5057035;28;20031;-69
2023/08/11 05:53:53;;;;;;;2.30;1.00;;;28.30;26.50;;;;;;5057533;28;20428;-61
2023/08/11 05:56:21;;;;;;;3.63;0.80;;;28.80;26.50;;;;;;5056570;28;20061;-61
2023/08/11 05:58:48;;;;;;;2.40;1.10;;;29.30;26.20;;;;;;5056677;28;20463;-61
2023/08/11 06:01:16;;;;;;;2.22;0.70;;;29.70;26.20;;;;;;5056604;28;20086;-61
2023/08/11 06:03:43;;;;;;;1.75;0.70;;;28.40;26.50;;;;;;5057323;28;20351;-62
2023/08/11 06:06:11;;;;;;;2.03;0.90;;;28.70;26.70;;;;;;5056161;28;20063;-62
2023/08/11 06:08:40;;;;;;;1.73;0.85;;;29.20;26.60;;;;;;5056177;28;20055;-60
2023/08/11 06:11:07;;;;;;;2.38;0.90;;;27.70;26.70;;;;;;5056000;28;20049;-61
2023/08/11 06:13:40;;;;;;;2.42;0.80;;;29.10;26.20;;;;;;5056869;28;20083;-62
2023/08/11 06:16:07;;;;;;;1.98;0.90;;;29.60;25.50;;;;;;5055990;28;20032;-61
2023/08/11 06:18:36;;;;;;;3.00;0.98;;;30.00;25.80;;;;;;5057000;28;20029;-61
2023/08/11 06:21:04;;;;;;;2.08;0.70;;;28.20;26.30;;;;;;5055885;28;20135;-67
2023/08/11 06:23:40;;;;;;;1.88;0.68;;;25.10;29.30;;;;;;5056609;28;20028;-64
2023/08/11 06:26:13;;;;;;;2.70;0.70;;;23.30;31.40;;;;;;5055830;28;20370;-65
2023/08/11 06:28:48;;;;;;;1.73;0.60;;;22.20;32.70;;;;;;5055783;28;20183;-68
2023/08/11 06:31:22;;;;;;;2.85;0.60;;;21.40;34.40;;;;;;5056638;28;20078;-64
2023/08/11 06:33:55;;;;;;;1.40;0.75;;;21.10;35.00;;;;;;5056892;28;20028;-64
2023/08/11 06:36:26;;;;;;;1.27;0.60;;;20.70;34.90;;;;;;5056678;28;20033;-60
2023/08/11 06:38:57;;;;;;;1.92;0.90;;;20.80;35.70;;;;;;5056276;28;20024;-64
2023/08/11 06:41:33;;;;;;;2.95;0.70;;;20.60;35.90;;;;;;5055909;28;20028;-64
2023/08/11 06:44:09;;;;;;;3.13;0.98;;;20.60;36.50;;;;;;5055660;28;20051;-65
2023/08/11 06:46:41;;;;;;;2.40;1.02;;;20.40;36.90;;;;;;5055712;28;20549;-61
2023/08/11 06:49:15;;;;;;;3.08;1.10;;;20.20;37.70;;;;;;5053930;28;20371;-64
2023/08/11 06:51:48;;;;;;;2.97;0.90;;;20.00;38.20;;;;;;5055823;28;20025;-65
2023/08/11 06:54:16;;;;;;;5.13;1.05;;;19.80;38.40;;;;;;5055512;28;20025;-64
2023/08/11 06:56:44;;;;;;;2.58;0.75;;;19.60;39.40;;;;;;5056351;28;20032;-66
2023/08/11 06:59:12;;;;;;;2.70;1.10;;;19.50;40.80;;;;;;5055481;28;20513;-60
2023/08/11 07:01:39;;;;;;;2.63;1.13;;;19.40;39.40;;;;;;5054506;28;20021;-59
2023/08/11 07:04:07;;;;;;;4.65;1.50;;;19.30;39.60;;;;;;5055214;28;20036;-60
2023/08/11 07:06:35;;;;;;;3.55;0.98;;;19.30;40.20;;;;;;5054996;28;20059;-67
2023/08/11 07:09:02;;;;;;;2.42;0.88;;;19.10;41.80;;;;;;5056387;28;20355;-66
2023/08/11 07:11:36;;;;;;;3.15;1.10;;;19.00;42.60;;;;;;5055818;28;20025;-62
2023/08/11 07:14:12;;;;;;;3.00;0.98;;;18.50;42.70;;;;;;5056199;28;20036;-63
2023/08/11 07:16:46;;;;;;;4.40;0.90;;;18.30;44.20;;;;;;5055070;28;20471;-62
2023/08/11 07:19:24;;;;;;;3.50;1.00;;;18.10;44.50;;;;;;5056309;28;20052;-66
2023/08/11 07:21:52;;;;;;;2.72;0.80;;;18.00;45.10;;;;;;5054691;28;20025;-61
2023/08/11 07:24:24;;;;;;;3.28;1.00;;;17.70;45.10;;;;;;5055506;28;20108;-63
2023/08/11 07:26:53;;;;;;;3.00;1.08;;;17.50;45.30;;;;;;5056275;28;20048;-61
2023/08/11 07:29:24;;;;;;;3.22;1.08;;;17.20;45.80;;;;;;5056113;28;20087;-63
2023/08/11 07:31:54;;;;;;;2.97;0.80;;;17.10;47.00;;;;;;5055402;28;20021;-64
2023/08/11 07:34:28;;;;;;;2.25;1.00;;;17.00;47.70;;;;;;5056164;28;20039;-66
2023/08/11 07:36:56;;;;;;;2.63;0.90;;;16.70;47.40;;;;;;5054627;28;20025;-61
2023/08/11 07:39:23;;;;;;;2.65;1.02;;;16.60;47.80;;;;;;5054748;28;20058;-60
2023/08/11 07:41:51;;;;;;;1.70;0.93;;;16.60;49.00;;;;;;5055839;28;20044;-61
2023/08/11 07:44:19;;;;;;;2.33;1.20;;;16.50;49.50;;;;;;5055431;28;20099;-67
2023/08/11 07:46:46;;;;;;;4.97;1.17;;;16.20;49.80;;;;;;5054618;28;20021;-66
2023/08/11 07:49:14;;;;;;;4.22;2.08;;;15.90;50.70;;;;;;5054585;28;20017;-67
2023/08/11 07:51:41;;;;;;;5.13;2.25;;;15.90;50.80;;;;;;5055323;28;20332;-68
2023/08/11 07:54:10;;;;;;;6.75;3.03;;;15.80;50.10;;;;;;5055316;28;20017;-66
2023/08/11 07:56:37;;;;;;;6.10;3.17;;;15.80;50.10;;;;;;5055033;28;20402;-66
2023/08/11 07:59:05;;;;;;;5.57;3.20;;;15.80;50.50;;;;;;5054438;28;20355;-66
2023/08/11 08:01:33;;;;;;;5.75;3.50;;;15.70;51.10;;;;;;5055209;28;20442;-66
2023/08/11 08:04:00;;;;;;;6.00;3.35;;;15.70;51.00;;;;;;5053892;28;20086;-66
2023/08/11 08:06:28;;;;;;;7.82;3.70;;;15.60;51.30;;;;;;5055038;28;20049;-66
2023/08/11 08:08:55;;;;;;;6.85;3.65;;;15.50;51.40;;;;;;5054140;28;20436;-66
2023/08/11 08:11:23;;;;;;;8.13;4.40;;;15.50;51.70;;;;;;5055302;28;20154;-66
2023/08/11 08:13:51;;;;;;;8.57;3.88;;;15.50;52.60;;;;;;5054404;28;20029;-65
2023/08/11 08:16:18;;;;;;;4.57;2.65;;;15.40;52.80;;;;;;5054234;28;20033;-66
2023/08/11 08:18:46;;;;;;;4.28;2.30;;;15.40;53.30;;;;;;5055150;28;20545;-66
2023/08/11 08:21:13;;;;;;;4.80;2.58;;;15.30;53.80;;;;;;5054824;28;20036;-60
2023/08/11 08:23:41;;;;;;;5.10;2.25;;;15.30;54.30;;;;;;5054354;28;20067;-66
2023/08/11 08:26:10;;;;;;;7.03;3.13;;;15.30;54.80;;;;;;5053920;28;20060;-68
2023/08/11 08:28:39;;;;;;;3.75;2.15;;;15.30;55.20;;;;;;5053955;28;20123;-65
2023/08/11 08:31:07;;;;;;;4.78;2.60;;;15.30;55.80;;;;;;5053691;28;20021;-70
2023/08/11 08:33:35;;;;;;;4.65;2.85;;;15.20;56.20;;;;;;5053712;28;20025;-68
2023/08/11 08:36:02;;;;;;;7.50;4.03;;;15.20;56.80;;;;;;5054789;28;20074;-70
2023/08/11 08:38:30;;;;;;;7.47;3.92;;;15.20;57.20;;;;;;5053727;28;20462;-67
2023/08/11 08:40:58;;;;;;;6.80;3.75;;;15.10;57.40;;;;;;5054723;28;20462;-65
2023/08/11 08:43:25;;;;;;;5.93;3.00;;;15.00;58.10;;;;;;5053845;28;20033;-64
2023/08/11 08:45:55;;;;;;;7.78;3.80;;;14.90;58.70;;;;;;5053857;28;20116;-65
2023/08/11 08:48:46;;;;;;;4.90;2.95;;;14.80;58.80;;;;;;5053611;28;20036;-65
2023/08/11 08:51:15;;;;;;;4.63;2.30;;;14.80;59.50;;;;;;5053829;28;20029;-67
2023/08/11 08:53:43;;;;;;;4.32;2.13;;;14.70;59.80;;;;;;5054736;28;20078;-67
2023/08/11 08:56:10;;;;;;;4.82;2.70;;;14.60;60.40;;;;;;5054636;28;20021;-66
2023/08/11 08:58:38;;;;;;;5.75;2.97;;;14.50;60.50;;;;;;5054445;28;20467;-66
2023/08/11 09:01:07;;;;;;;6.40;1.98;;;14.50;60.80;;;;;;5054541;28;20029;-66
2023/08/11 09:03:36;;;;;;;7.18;3.90;;;14.50;60.80;;;;;;5054090;28;20026;-66
2023/08/11 09:06:08;;;;;;;8.15;4.05;;;14.30;61.20;;;;;;5053823;28;20059;-67
2023/08/11 09:08:39;;;;;;;7.93;3.70;;;14.30;61.10;;;;;;5054510;28;20443;-68
2023/08/11 09:11:07;;;;;;;5.90;3.03;;;14.20;61.80;;;;;;5054615;28;20021;-67
2023/08/11 09:13:37;;;;;;;8.10;3.30;;;14.20;61.80;;;;;;5054525;28;20104;-67
2023/08/11 09:16:05;;;;;;;7.05;2.85;;;14.10;61.70;;;;;;5053775;28;20067;-67
2023/08/11 09:18:33;;;;;;;5.18;2.55;;;14.20;61.90;;;;;;5054503;28;20021;-67
2023/08/11 09:21:03;;;;;;;5.03;2.38;;;14.30;61.60;;;;;;5053497;28;20025;-66
2023/08/11 09:23:32;;;;;;;5.50;1.92;;;14.20;62.10;;;;;;5053396;28;20029;-66
2023/08/11 09:26:01;;;;;;;6.40;1.90;;;14.10;62.20;;;;;;5056805;28;20025;-66
2023/08/11 09:28:29;;;;;;;5.63;2.10;;;14.20;62.30;;;;;;5057189;28;20036;-66
2023/08/11 09:30:56;;;;;;;5.38;2.13;;;14.00;62.40;;;;;;5057198;28;20025;-66
2023/08/11 09:33:25;;;;;;;4.53;1.90;;;14.00;62.40;;;;;;5058292;28;20339;-67
2023/08/11 09:35:53;;;;;;;4.22;2.05;;;14.00;62.80;;;;;;5056987;28;20036;-67
2023/08/11 09:38:21;;;;;;;5.03;1.70;;;13.70;63.00;;;;;;5057792;28;20017;-66
2023/08/11 09:40:51;;;;;;;4.97;1.90;;;13.60;63.50;;;;;;5056920;28;20397;-67
2023/08/11 09:43:18;;;;;;;4.55;2.13;;;13.50;63.90;;;;;;5058170;28;20025;-67
2023/08/11 09:45:46;;;;;;;3.88;1.70;;;13.50;64.20;;;;;;5058005;28;20056;-67
2023/08/11 09:48:13;;;;;;;3.40;1.58;;;13.40;64.50;;;;;;5057806;28;20021;-67
2023/08/11 09:50:41;;;;;;;4.28;1.73;;;13.40;64.90;;;;;;5057782;28;20108;-66
2023/08/11 09:53:10;;;;;;;3.75;1.60;;;13.40;64.70;;;;;;5056310;28;20029;-66
2023/08/11 09:55:40;;;;;;;3.20;1.70;;;13.30;65.00;;;;;;5055719;28;20351;-60
2023/08/11 09:58:11;;;;;;;4.25;1.85;;;13.20;65.30;;;;;;5057320;28;20058;-60
2023/08/11 10:00:39;;;;;;;4.35;1.90;;;13.30;64.60;;;;;;5056761;28;20033;-60
2023/08/11 10:03:13;;;;;;;3.75;1.92;;;13.20;64.70;;;;;;5057598;28;20103;-61
2023/08/11 10:05:45;;;;;;;3.28;1.95;;;13.20;65.20;;;;;;5056471;28;20059;-60
2023/08/11 10:08:21;;;;;;;5.10;1.92;;;13.30;64.80;;;;;;5057578;28;20013;-60
2023/08/11 10:10:49;;;;;;;5.82;2.20;;;13.40;64.60;;;;;;5057607;28;20032;-60
2023/08/11 10:13:21;;;;;;;5.80;2.40;;;13.30;65.50;;;;;;5056579;28;20083;-59
2023/08/11 10:15:51;;;;;;;6.65;2.05;;;13.20;66.10;;;;;;5057564;28;20021;-59
2023/08/11 10:18:20;;;;;;;5.90;2.08;;;13.10;66.10;;;;;;5057423;28;20025;-59
2023/08/11 10:20:50;;;;;;;5.40;2.00;;;13.10;66.20;;;;;;5056382;28;20079;-59
2023/08/11 10:23:19;;;;;;;5.28;2.47;;;12.90;66.80;;;;;;5055988;28;20075;-60
2023/08/11 10:25:50;;;;;;;5.70;1.80;;;12.60;68.30;;;;;;5055748;28;20021;-61
2023/08/11 10:28:18;;;;;;;5.53;2.25;;;12.50;68.50;;;;;;5056080;28;20124;-59
2023/08/11 10:30:58;;;;;;;7.53;2.20;;;12.60;68.70;;;;;;5057284;28;20498;-60
2023/08/11 10:33:30;;;;;;;4.43;2.10;;;12.40;68.90;;;;;;5057174;28;20021;-60
2023/08/11 10:36:00;;;;;;;5.43;2.05;;;12.50;68.00;;;;;;5055917;28;20474;-60
2023/08/11 10:38:29;;;;;;;4.65;2.70;;;12.50;68.20;;;;;;5056271;28;20056;-61
2023/08/11 10:41:09;;;;;;;4.80;2.03;;;12.40;68.60;;;;;;5057058;28;20100;-60
2023/08/11 10:43:40;;;;;;;5.50;3.00;;;12.40;68.90;;;;;;5055960;28;20025;-60
2023/08/11 10:46:32;;;;;;;7.60;3.45;;;12.00;70.10;;;;;;5056965;28;20075;-60
2023/08/11 10:49:07;;;;;;;7.07;3.15;;;11.70;71.50;;;;;;5056012;28;20474;-59
2023/08/11 10:51:39;;;;;;;6.47;3.20;;;11.80;71.20;;;;;;5055902;28;20371;-59
2023/08/11 10:54:11;;;;;;;6.55;3.80;;;11.70;71.50;;;;;;5055878;28;20021;-59
2023/08/11 10:56:43;;;;;;;7.57;3.42;;;11.50;72.70;;;;;;5056704;28;20035;-60
2023/08/11 10:59:18;;;;;;;7.37;3.80;;;11.50;72.60;;;;;;5056807;28;20029;-60
2023/08/11 11:01:48;;;;;;;5.18;3.47;;;11.50;72.40;;;;;;5056676;28;20041;-60
2023/08/11 11:04:18;;;;;;;6.30;3.30;;;11.70;71.70;;;;;;5056640;28;20025;-60
2023/08/11 11:06:47;;;;;;;7.30;2.97;;;11.10;73.10;;;;;;5056233;28;20041;-60
2023/08/11 11:09:16;;;;;;;5.82;3.30;;;11.10;73.70;;;;;;5055639;28;20466;-60
2023/08/11 11:11:44;;;;;;;4.28;3.03;;;11.20;73.40;;;;;;5056025;28;20021;-61
2023/08/11 11:14:13;;;;;;;7.22;3.63;;;11.00;74.30;;;;;;5056496;28;20021;-61
2023/08/11 11:16:41;;;;;;;5.05;2.97;;;10.70;74.80;;;;;;5056354;28;20025;-61
2023/08/11 11:19:09;;;;;;;6.63;3.20;;;10.60;75.60;;;;;;5056296;28;20021;-62
2023/08/11 11:21:42;;;;;;;7.07;3.10;;;10.60;75.50;;;;;;5056208;28;20108;-61
2023/08/11 11:24:15;;;;;;;7.35;3.85;;;10.60;75.70;;;;;;5054389;28;20207;-62
2023/08/11 11:26:42;;;;;;;9.60;3.53;;;10.40;76.50;;;;;;5055013;28;20020;-61
2023/08/11 11:29:11;;;;;;;6.15;3.40;;;10.30;77.00;;;;;;5056029;28;20024;-60
2023/08/11 11:31:40;;;;;;;7.00;4.22;;;10.20;77.30;;;;;;5056024;28;20067;-60
2023/08/11 11:34:08;;;;;;;8.15;4.40;;;10.10;77.50;;;;;;5053648;28;20061;-60
2023/08/11 11:36:35;;;;;;;8.68;4.18;;;10.00;77.70;;;;;;5053015;28;20443;-60
2023/08/11 11:39:05;;;;;;;6.10;3.55;;;10.00;78.10;;;;;;5053040;28;20487;-60
2023/08/11 11:41:35;;;;;;;8.82;3.80;;;9.90;78.30;;;;;;5054108;28;20436;-61
2023/08/11 11:44:03;;;;;;;6.07;3.15;;;10.20;76.90;;;;;;5052968;28;20025;-60
2023/08/11 11:46:33;;;;;;;7.05;3.55;;;10.40;75.70;;;;;;5053524;28;20100;-61
2023/08/11 11:49:03;;;;;;;8.07;3.85;;;10.50;75.20;;;;;;5053437;28;20066;-67
2023/08/11 11:51:31;;;;;;;7.25;3.70;;;10.60;74.50;;;;;;5054999;28;20120;-67
2023/08/11 11:54:00;;;;;;;8.23;4.22;;;10.60;74.20;;;;;;5055560;28;20474;-67
2023/08/11 11:56:31;;;;;;;8.10;4.20;;;10.50;74.90;;;;;;5054417;28;20029;-67
2023/08/11 11:58:59;;;;;;;6.90;4.13;;;10.40;75.00;;;;;;5054472;28;20025;-67
2023/08/11 12:01:29;;;;;;;8.77;5.40;;;10.50;74.80;;;;;;5054561;28;20041;-67
2023/08/11 12:03:59;;;;;;;8.48;5.55;;;10.20;75.60;;;;;;5054502;28;20051;-67
2023/08/11 12:06:30;;;;;;;8.07;4.78;;;10.00;75.90;;;;;;5054376;28;20044;-67
2023/08/11 12:09:11;;;;;;;8.27;5.32;;;10.00;76.50;;;;;;5054412;28;20112;-67
2023/08/11 12:11:42;;;;;;;11.88;6.47;;;9.90;77.30;;;;;;5055461;28;20017;-67
2023/08/11 12:14:15;;;;;;;10.43;6.70;;;10.10;76.20;;;;;;5054450;28;20120;-67
2023/08/11 12:16:44;;;;;;;11.52;6.25;;;10.00;75.80;;;;;;5055407;28;20029;-68
2023/08/11 12:19:14;;;;;;;11.73;6.68;;;9.80;77.20;;;;;;5055350;28;20115;-67
2023/08/11 12:21:43;;;;;;;14.80;7.72;;;9.70;77.40;;;;;;5054575;28;20103;-67
2023/08/11 12:24:14;;;;;;;12.13;6.88;;;9.60;78.20;;;;;;5054222;28;20367;-67
2023/08/11 12:26:42;;;;;;;10.93;5.88;;;9.50;78.60;;;;;;5055339;28;20032;-67
2023/08/11 12:29:09;;;;;;;10.55;5.85;;;9.50;79.00;;;;;;5055245;28;20041;-68
2023/08/11 12:31:37;;;;;;;9.95;5.22;;;9.50;78.80;;;;;;5055184;28;20027;-67
2023/08/11 12:34:04;;;;;;;11.00;5.18;;;9.50;78.90;;;;;;5055344;28;20070;-67
2023/08/11 12:36:32;;;;;;;11.18;5.72;;;9.40;79.40;;;;;;5055197;28;20031;-67
2023/08/11 12:38:59;;;;;;;9.02;5.20;;;9.20;80.10;;;;;;5055164;28;20025;-67
2023/08/11 12:41:27;;;;;;;6.93;4.40;;;9.40;78.90;;;;;;5055234;28;20063;-66
2023/08/11 12:43:54;;;;;;;8.18;4.22;;;9.40;79.40;;;;;;5053975;28;20025;-67
2023/08/11 12:46:22;;;;;;;9.70;4.97;;;9.30;79.80;;;;;;5054075;28;20048;-67
2023/08/11 12:48:49;;;;;;;10.30;5.45;;;9.40;79.70;;;;;;5054062;28;20024;-67
2023/08/11 12:51:17;;;;;;;7.15;4.50;;;9.20;79.90;;;;;;5055134;28;20025;-66
2023/08/11 12:53:45;;;;;;;8.82;4.82;;;9.30;79.70;;;;;;5055045;28;20021;-67
2023/08/11 12:56:12;;;;;;;6.88;4.13;;;9.30;79.70;;;;;;5053921;28;20029;-67
2023/08/11 12:58:39;;;;;;;9.13;5.30;;;9.20;80.20;;;;;;5053832;28;20028;-67